sensor_id;sensor_type;location;lat;lon;timestamp;P1;durP1;ratioP1;P2;durP2;ratioP2
10839;SDS011;5473;42.706;23.328;2022-08-19T00:00:09;0.10;;;0.10;;
10839;SDS011;5473;42.706;23.328;2022-08-19T00:02:39;0.10;;;0.10;;
10839;SDS011;5473;42.706;23.328;2022-08-19T00:05:07;0.10;;;0.10;;
10839;SDS011;5473;42.706;23.328;2022-08-19T00:07:34;0.10;;;0.10;;
10839;SDS011;5473;42.706;23.328;2022-08-19T00:10:03;0.10;;;0.10;;
10839;SDS011;5473;42.706;23.328;2022-08-19T00:12:30;0.10;;;0.10;;
10839;SDS011;5473;42.706;23.328;2022-08-19T00:14:57;0.10;;;0.10;;
10839;SDS011;5473;42.706;23.328;2022-08-19T00:17:26;0.10;;;0.10;;
10839;SDS011;5473;42.706;23.328;2022-08-19T00:19:52;0.10;;;0.10;;
10839;SDS011;5473;42.706;23.328;2022-08-19T00:22:19;0.10;;;0.10;;
10839;SDS011;5473;42.706;23.328;2022-08-19T00:24:46;0.10;;;0.10;;
10839;SDS011;5473;42.706;23.328;2022-08-19T00:27:13;0.10;;;0.10;;
10839;SDS011;5473;42.706;23.328;2022-08-19T00:29:40;0.10;;;0.10;;
10839;SDS011;5473;42.706;23.328;2022-08-19T00:32:06;0.10;;;0.10;;
10839;SDS011;5473;42.706;23.328;2022-08-19T00:34:35;0.10;;;0.10;;
10839;SDS011;5473;42.706;23.328;2022-08-19T00:37:01;0.10;;;0.10;;
10839;SDS011;5473;42.706;23.328;2022-08-19T00:39:28;0.10;;;0.10;;
10839;SDS011;5473;42.706;23.328;2022-08-19T00:41:55;0.10;;;0.10;;
10839;SDS011;5473;42.706;23.328;2022-08-19T00:44:23;0.10;;;0.10;;
10839;SDS011;5473;42.706;23.328;2022-08-19T00:46:51;0.10;;;0.10;;
10839;SDS011;5473;42.706;23.328;2022-08-19T00:49:20;0.10;;;0.10;;
10839;SDS011;5473;42.706;23.328;2022-08-19T00:51:53;0.10;;;0.10;;
10839;SDS011;5473;42.706;23.328;2022-08-19T00:54:26;0.10;;;0.10;;
10839;SDS011;5473;42.706;23.328;2022-08-19T00:56:53;0.10;;;0.10;;
10839;SDS011;5473;42.706;23.328;2022-08-19T00:59:20;0.20;;;0.20;;
10839;SDS011;5473;42.706;23.328;2022-08-19T01:01:47;0.10;;;0.10;;
10839;SDS011;5473;42.706;23.328;2022-08-19T01:04:14;0.20;;;0.20;;
10839;SDS011;5473;42.706;23.328;2022-08-19T01:06:41;0.10;;;0.10;;
10839;SDS011;5473;42.706;23.328;2022-08-19T01:09:09;0.10;;;0.10;;
10839;SDS011;5473;42.706;23.328;2022-08-19T01:11:37;0.10;;;0.10;;
10839;SDS011;5473;42.706;23.328;2022-08-19T01:14:10;0.10;;;0.10;;
10839;SDS011;5473;42.706;23.328;2022-08-19T01:16:37;0.13;;;0.13;;
10839;SDS011;5473;42.706;23.328;2022-08-19T01:19:09;0.20;;;0.20;;
10839;SDS011;5473;42.706;23.328;2022-08-19T01:21:40;0.10;;;0.10;;
10839;SDS011;5473;42.706;23.328;2022-08-19T01:24:11;0.10;;;0.10;;
10839;SDS011;5473;42.706;23.328;2022-08-19T01:26:39;0.10;;;0.10;;
10839;SDS011;5473;42.706;23.328;2022-08-19T01:29:08;0.20;;;0.20;;
10839;SDS011;5473;42.706;23.328;2022-08-19T01:31:36;0.20;;;0.20;;
10839;SDS011;5473;42.706;23.328;2022-08-19T01:34:04;0.10;;;0.10;;
10839;SDS011;5473;42.706;23.328;2022-08-19T01:36:32;0.10;;;0.10;;
10839;SDS011;5473;42.706;23.328;2022-08-19T01:39:04;0.10;;;0.10;;
10839;SDS011;5473;42.706;23.328;2022-08-19T01:41:37;0.20;;;0.20;;
10839;SDS011;5473;42.706;23.328;2022-08-19T01:44:04;0.20;;;0.20;;
10839;SDS011;5473;42.706;23.328;2022-08-19T01:46:32;0.10;;;0.10;;
10839;SDS011;5473;42.706;23.328;2022-08-19T01:48:59;0.20;;;0.20;;
10839;SDS011;5473;42.706;23.328;2022-08-19T01:51:26;0.20;;;0.20;;
10839;SDS011;5473;42.706;23.328;2022-08-19T01:53:55;0.20;;;0.20;;
10839;SDS011;5473;42.706;23.328;2022-08-19T01:56:22;0.20;;;0.20;;
10839;SDS011;5473;42.706;23.328;2022-08-19T01:58:52;0.20;;;0.20;;
10839;SDS011;5473;42.706;23.328;2022-08-19T02:01:24;0.20;;;0.20;;
10839;SDS011;5473;42.706;23.328;2022-08-19T02:03:51;0.10;;;0.10;;
10839;SDS011;5473;42.706;23.328;2022-08-19T02:06:19;0.20;;;0.20;;
10839;SDS011;5473;42.706;23.328;2022-08-19T02:08:46;0.20;;;0.20;;
10839;SDS011;5473;42.706;23.328;2022-08-19T02:11:18;0.20;;;0.20;;
10839;SDS011;5473;42.706;23.328;2022-08-19T02:13:46;0.20;;;0.20;;
10839;SDS011;5473;42.706;23.328;2022-08-19T02:16:15;0.20;;;0.20;;
10839;SDS011;5473;42.706;23.328;2022-08-19T02:18:43;0.20;;;0.20;;
10839;SDS011;5473;42.706;23.328;2022-08-19T02:21:10;0.10;;;0.10;;
10839;SDS011;5473;42.706;23.328;2022-08-19T02:23:37;0.20;;;0.20;;
10839;SDS011;5473;42.706;23.328;2022-08-19T02:26:04;0.20;;;0.20;;
10839;SDS011;5473;42.706;23.328;2022-08-19T02:28:31;0.20;;;0.20;;
10839;SDS011;5473;42.706;23.328;2022-08-19T02:30:58;0.20;;;0.20;;
10839;SDS011;5473;42.706;23.328;2022-08-19T02:33:29;0.30;;;0.30;;
10839;SDS011;5473;42.706;23.328;2022-08-19T02:35:56;0.20;;;0.20;;
10839;SDS011;5473;42.706;23.328;2022-08-19T02:38:22;0.20;;;0.20;;
10839;SDS011;5473;42.706;23.328;2022-08-19T02:40:52;0.20;;;0.20;;
10839;SDS011;5473;42.706;23.328;2022-08-19T02:43:20;0.20;;;0.20;;
10839;SDS011;5473;42.706;23.328;2022-08-19T02:45:48;0.20;;;0.20;;
10839;SDS011;5473;42.706;23.328;2022-08-19T02:48:16;0.20;;;0.20;;
10839;SDS011;5473;42.706;23.328;2022-08-19T02:50:46;0.20;;;0.20;;
10839;SDS011;5473;42.706;23.328;2022-08-19T02:53:16;0.20;;;0.20;;
10839;SDS011;5473;42.706;23.328;2022-08-19T02:55:43;0.20;;;0.20;;
10839;SDS011;5473;42.706;23.328;2022-08-19T02:58:11;0.20;;;0.20;;
10839;SDS011;5473;42.706;23.328;2022-08-19T03:00:41;0.20;;;0.20;;
10839;SDS011;5473;42.706;23.328;2022-08-19T03:03:09;0.20;;;0.20;;
10839;SDS011;5473;42.706;23.328;2022-08-19T03:05:36;0.20;;;0.20;;
10839;SDS011;5473;42.706;23.328;2022-08-19T03:08:04;0.20;;;0.20;;
10839;SDS011;5473;42.706;23.328;2022-08-19T03:10:32;0.20;;;0.20;;
10839;SDS011;5473;42.706;23.328;2022-08-19T03:12:58;0.20;;;0.20;;
10839;SDS011;5473;42.706;23.328;2022-08-19T03:15:25;0.20;;;0.20;;
10839;SDS011;5473;42.706;23.328;2022-08-19T03:17:52;0.20;;;0.20;;
10839;SDS011;5473;42.706;23.328;2022-08-19T03:20:19;0.20;;;0.20;;
10839;SDS011;5473;42.706;23.328;2022-08-19T03:22:46;0.20;;;0.20;;
10839;SDS011;5473;42.706;23.328;2022-08-19T03:25:14;0.20;;;0.20;;
10839;SDS011;5473;42.706;23.328;2022-08-19T03:27:41;0.20;;;0.20;;
10839;SDS011;5473;42.706;23.328;2022-08-19T03:30:09;0.20;;;0.20;;
10839;SDS011;5473;42.706;23.328;2022-08-19T03:32:37;0.30;;;0.30;;
10839;SDS011;5473;42.706;23.328;2022-08-19T03:35:04;0.20;;;0.20;;
10839;SDS011;5473;42.706;23.328;2022-08-19T03:37:31;0.20;;;0.20;;
10839;SDS011;5473;42.706;23.328;2022-08-19T03:39:58;0.20;;;0.20;;
10839;SDS011;5473;42.706;23.328;2022-08-19T03:42:26;0.20;;;0.20;;
10839;SDS011;5473;42.706;23.328;2022-08-19T03:44:53;0.20;;;0.20;;
10839;SDS011;5473;42.706;23.328;2022-08-19T03:47:20;0.20;;;0.20;;
10839;SDS011;5473;42.706;23.328;2022-08-19T03:49:46;0.20;;;0.20;;
10839;SDS011;5473;42.706;23.328;2022-08-19T03:52:13;0.20;;;0.20;;
10839;SDS011;5473;42.706;23.328;2022-08-19T03:54:40;0.20;;;0.20;;
10839;SDS011;5473;42.706;23.328;2022-08-19T03:57:07;0.20;;;0.20;;
10839;SDS011;5473;42.706;23.328;2022-08-19T03:59:37;0.23;;;0.23;;
10839;SDS011;5473;42.706;23.328;2022-08-19T04:02:05;0.20;;;0.20;;
10839;SDS011;5473;42.706;23.328;2022-08-19T04:04:34;0.20;;;0.20;;
10839;SDS011;5473;42.706;23.328;2022-08-19T04:07:02;0.30;;;0.30;;
10839;SDS011;5473;42.706;23.328;2022-08-19T04:09:29;0.20;;;0.20;;
10839;SDS011;5473;42.706;23.328;2022-08-19T04:11:56;0.20;;;0.20;;
10839;SDS011;5473;42.706;23.328;2022-08-19T04:14:25;0.20;;;0.20;;
10839;SDS011;5473;42.706;23.328;2022-08-19T04:16:56;0.20;;;0.20;;
10839;SDS011;5473;42.706;23.328;2022-08-19T04:19:23;0.20;;;0.20;;
10839;SDS011;5473;42.706;23.328;2022-08-19T04:21:51;0.20;;;0.20;;
10839;SDS011;5473;42.706;23.328;2022-08-19T04:24:20;0.20;;;0.20;;
10839;SDS011;5473;42.706;23.328;2022-08-19T04:26:48;0.20;;;0.20;;
10839;SDS011;5473;42.706;23.328;2022-08-19T04:29:16;0.20;;;0.20;;
10839;SDS011;5473;42.706;23.328;2022-08-19T04:31:47;0.20;;;0.20;;
10839;SDS011;5473;42.706;23.328;2022-08-19T04:34:17;0.20;;;0.20;;
10839;SDS011;5473;42.706;23.328;2022-08-19T04:36:47;0.20;;;0.20;;
10839;SDS011;5473;42.706;23.328;2022-08-19T04:39:16;0.10;;;0.10;;
10839;SDS011;5473;42.706;23.328;2022-08-19T04:41:45;0.20;;;0.20;;
10839;SDS011;5473;42.706;23.328;2022-08-19T04:44:30;0.20;;;0.20;;
10839;SDS011;5473;42.706;23.328;2022-08-19T04:46:57;0.20;;;0.20;;
10839;SDS011;5473;42.706;23.328;2022-08-19T04:49:26;0.20;;;0.20;;
10839;SDS011;5473;42.706;23.328;2022-08-19T04:51:53;0.20;;;0.20;;
10839;SDS011;5473;42.706;23.328;2022-08-19T04:54:22;0.20;;;0.20;;
10839;SDS011;5473;42.706;23.328;2022-08-19T04:56:51;0.13;;;0.13;;
10839;SDS011;5473;42.706;23.328;2022-08-19T04:59:19;0.20;;;0.20;;
10839;SDS011;5473;42.706;23.328;2022-08-19T05:01:47;0.20;;;0.20;;
10839;SDS011;5473;42.706;23.328;2022-08-19T05:04:15;0.20;;;0.20;;
10839;SDS011;5473;42.706;23.328;2022-08-19T05:06:45;0.20;;;0.20;;
10839;SDS011;5473;42.706;23.328;2022-08-19T05:09:13;0.13;;;0.13;;
10839;SDS011;5473;42.706;23.328;2022-08-19T05:11:42;0.10;;;0.10;;
10839;SDS011;5473;42.706;23.328;2022-08-19T05:14:10;0.20;;;0.20;;
10839;SDS011;5473;42.706;23.328;2022-08-19T05:16:38;0.20;;;0.20;;
10839;SDS011;5473;42.706;23.328;2022-08-19T05:19:06;0.17;;;0.17;;
10839;SDS011;5473;42.706;23.328;2022-08-19T05:21:51;0.20;;;0.20;;
10839;SDS011;5473;42.706;23.328;2022-08-19T05:24:36;0.10;;;0.10;;
10839;SDS011;5473;42.706;23.328;2022-08-19T05:27:03;0.20;;;0.20;;
10839;SDS011;5473;42.706;23.328;2022-08-19T05:29:31;0.20;;;0.20;;
10839;SDS011;5473;42.706;23.328;2022-08-19T05:32:00;0.10;;;0.10;;
10839;SDS011;5473;42.706;23.328;2022-08-19T05:34:28;0.10;;;0.10;;
10839;SDS011;5473;42.706;23.328;2022-08-19T05:36:56;0.13;;;0.13;;
10839;SDS011;5473;42.706;23.328;2022-08-19T05:39:26;0.10;;;0.10;;
10839;SDS011;5473;42.706;23.328;2022-08-19T05:41:54;0.10;;;0.10;;
10839;SDS011;5473;42.706;23.328;2022-08-19T05:44:23;0.10;;;0.10;;
10839;SDS011;5473;42.706;23.328;2022-08-19T05:46:51;0.10;;;0.10;;
10839;SDS011;5473;42.706;23.328;2022-08-19T05:49:19;0.20;;;0.20;;
10839;SDS011;5473;42.706;23.328;2022-08-19T05:51:48;0.17;;;0.17;;
10839;SDS011;5473;42.706;23.328;2022-08-19T05:54:16;0.10;;;0.10;;
10839;SDS011;5473;42.706;23.328;2022-08-19T05:56:44;0.10;;;0.10;;
10839;SDS011;5473;42.706;23.328;2022-08-19T05:59:13;0.10;;;0.10;;
10839;SDS011;5473;42.706;23.328;2022-08-19T06:01:42;0.10;;;0.10;;
10839;SDS011;5473;42.706;23.328;2022-08-19T06:04:10;0.10;;;0.10;;
10839;SDS011;5473;42.706;23.328;2022-08-19T06:06:38;0.00;;;0.00;;
10839;SDS011;5473;42.706;23.328;2022-08-19T06:09:06;0.00;;;0.00;;
10839;SDS011;5473;42.706;23.328;2022-08-19T06:11:38;0.00;;;0.00;;
10839;SDS011;5473;42.706;23.328;2022-08-19T06:14:09;0.00;;;0.00;;
10839;SDS011;5473;42.706;23.328;2022-08-19T06:16:40;0.00;;;0.00;;
10839;SDS011;5473;42.706;23.328;2022-08-19T06:19:08;0.00;;;0.00;;
10839;SDS011;5473;42.706;23.328;2022-08-19T06:21:37;0.00;;;0.00;;
10839;SDS011;5473;42.706;23.328;2022-08-19T06:24:06;0.00;;;0.00;;
10839;SDS011;5473;42.706;23.328;2022-08-19T06:26:38;0.00;;;0.00;;
10839;SDS011;5473;42.706;23.328;2022-08-19T06:29:08;0.00;;;0.00;;
10839;SDS011;5473;42.706;23.328;2022-08-19T06:31:40;0.00;;;0.00;;
10839;SDS011;5473;42.706;23.328;2022-08-19T06:34:08;0.00;;;0.00;;
10839;SDS011;5473;42.706;23.328;2022-08-19T06:36:36;0.00;;;0.00;;
10839;SDS011;5473;42.706;23.328;2022-08-19T06:39:06;0.00;;;0.00;;
10839;SDS011;5473;42.706;23.328;2022-08-19T06:41:37;0.00;;;0.00;;
10839;SDS011;5473;42.706;23.328;2022-08-19T06:44:06;0.00;;;0.00;;
10839;SDS011;5473;42.706;23.328;2022-08-19T06:46:33;0.00;;;0.00;;
10839;SDS011;5473;42.706;23.328;2022-08-19T06:49:01;0.00;;;0.00;;
10839;SDS011;5473;42.706;23.328;2022-08-19T06:51:29;0.00;;;0.00;;
10839;SDS011;5473;42.706;23.328;2022-08-19T06:53:57;0.00;;;0.00;;
10839;SDS011;5473;42.706;23.328;2022-08-19T06:56:25;0.00;;;0.00;;
10839;SDS011;5473;42.706;23.328;2022-08-19T06:58:58;0.00;;;0.00;;
10839;SDS011;5473;42.706;23.328;2022-08-19T07:01:25;0.00;;;0.00;;
10839;SDS011;5473;42.706;23.328;2022-08-19T07:03:51;0.00;;;0.00;;
10839;SDS011;5473;42.706;23.328;2022-08-19T07:06:18;0.00;;;0.00;;
10839;SDS011;5473;42.706;23.328;2022-08-19T07:08:46;0.00;;;0.00;;
10839;SDS011;5473;42.706;23.328;2022-08-19T07:11:14;0.00;;;0.00;;
10839;SDS011;5473;42.706;23.328;2022-08-19T07:13:43;0.00;;;0.00;;
10839;SDS011;5473;42.706;23.328;2022-08-19T07:16:13;0.00;;;0.00;;
10839;SDS011;5473;42.706;23.328;2022-08-19T07:18:42;0.00;;;0.00;;
10839;SDS011;5473;42.706;23.328;2022-08-19T07:21:10;0.00;;;0.00;;
10839;SDS011;5473;42.706;23.328;2022-08-19T07:23:38;0.00;;;0.00;;
10839;SDS011;5473;42.706;23.328;2022-08-19T07:26:06;0.00;;;0.00;;
10839;SDS011;5473;42.706;23.328;2022-08-19T07:28:34;0.00;;;0.00;;
10839;SDS011;5473;42.706;23.328;2022-08-19T07:31:04;0.00;;;0.00;;
10839;SDS011;5473;42.706;23.328;2022-08-19T07:33:33;0.00;;;0.00;;
10839;SDS011;5473;42.706;23.328;2022-08-19T07:36:02;0.00;;;0.00;;
10839;SDS011;5473;42.706;23.328;2022-08-19T07:38:30;0.00;;;0.00;;
10839;SDS011;5473;42.706;23.328;2022-08-19T07:40:57;0.00;;;0.00;;
10839;SDS011;5473;42.706;23.328;2022-08-19T07:43:24;0.00;;;0.00;;
10839;SDS011;5473;42.706;23.328;2022-08-19T07:45:52;0.00;;;0.00;;
10839;SDS011;5473;42.706;23.328;2022-08-19T07:48:21;0.00;;;0.00;;
10839;SDS011;5473;42.706;23.328;2022-08-19T07:50:51;0.00;;;0.00;;
10839;SDS011;5473;42.706;23.328;2022-08-19T07:53:19;0.00;;;0.00;;
10839;SDS011;5473;42.706;23.328;2022-08-19T07:55:46;0.00;;;0.00;;
10839;SDS011;5473;42.706;23.328;2022-08-19T07:58:15;0.00;;;0.00;;
10839;SDS011;5473;42.706;23.328;2022-08-19T08:00:45;0.00;;;0.00;;
10839;SDS011;5473;42.706;23.328;2022-08-19T08:03:14;0.00;;;0.00;;
10839;SDS011;5473;42.706;23.328;2022-08-19T08:05:42;0.00;;;0.00;;
10839;SDS011;5473;42.706;23.328;2022-08-19T08:08:33;0.00;;;0.00;;
10839;SDS011;5473;42.706;23.328;2022-08-19T08:11:18;0.00;;;0.00;;
10839;SDS011;5473;42.706;23.328;2022-08-19T08:13:46;0.00;;;0.00;;
10839;SDS011;5473;42.706;23.328;2022-08-19T08:16:14;0.00;;;0.00;;
10839;SDS011;5473;42.706;23.328;2022-08-19T08:18:41;0.00;;;0.00;;
10839;SDS011;5473;42.706;23.328;2022-08-19T08:21:08;0.00;;;0.00;;
10839;SDS011;5473;42.706;23.328;2022-08-19T08:23:36;0.00;;;0.00;;
10839;SDS011;5473;42.706;23.328;2022-08-19T08:26:03;0.00;;;0.00;;
10839;SDS011;5473;42.706;23.328;2022-08-19T08:28:30;0.00;;;0.00;;
10839;SDS011;5473;42.706;23.328;2022-08-19T08:30:57;0.00;;;0.00;;
10839;SDS011;5473;42.706;23.328;2022-08-19T08:33:26;0.00;;;0.00;;
10839;SDS011;5473;42.706;23.328;2022-08-19T08:35:55;0.00;;;0.00;;
10839;SDS011;5473;42.706;23.328;2022-08-19T08:38:22;0.00;;;0.00;;
10839;SDS011;5473;42.706;23.328;2022-08-19T08:40:51;0.00;;;0.00;;
10839;SDS011;5473;42.706;23.328;2022-08-19T08:43:23;0.00;;;0.00;;
10839;SDS011;5473;42.706;23.328;2022-08-19T08:45:58;0.00;;;0.00;;
10839;SDS011;5473;42.706;23.328;2022-08-19T08:48:30;0.00;;;0.00;;
10839;SDS011;5473;42.706;23.328;2022-08-19T08:51:05;0.00;;;0.00;;
10839;SDS011;5473;42.706;23.328;2022-08-19T08:53:36;0.00;;;0.00;;
10839;SDS011;5473;42.706;23.328;2022-08-19T08:56:06;0.00;;;0.00;;
10839;SDS011;5473;42.706;23.328;2022-08-19T08:58:40;0.00;;;0.00;;
10839;SDS011;5473;42.706;23.328;2022-08-19T09:01:13;0.00;;;0.00;;
10839;SDS011;5473;42.706;23.328;2022-08-19T09:03:41;0.00;;;0.00;;
10839;SDS011;5473;42.706;23.328;2022-08-19T09:06:11;0.00;;;0.00;;
10839;SDS011;5473;42.706;23.328;2022-08-19T09:08:45;0.00;;;0.00;;
10839;SDS011;5473;42.706;23.328;2022-08-19T09:11:22;0.00;;;0.00;;
10839;SDS011;5473;42.706;23.328;2022-08-19T09:14:01;0.00;;;0.00;;
10839;SDS011;5473;42.706;23.328;2022-08-19T09:16:33;0.00;;;0.00;;
10839;SDS011;5473;42.706;23.328;2022-08-19T09:19:02;0.00;;;0.00;;
10839;SDS011;5473;42.706;23.328;2022-08-19T09:21:31;0.00;;;0.00;;
10839;SDS011;5473;42.706;23.328;2022-08-19T09:23:59;0.00;;;0.00;;
10839;SDS011;5473;42.706;23.328;2022-08-19T09:26:28;0.00;;;0.00;;
10839;SDS011;5473;42.706;23.328;2022-08-19T09:28:57;0.00;;;0.00;;
10839;SDS011;5473;42.706;23.328;2022-08-19T09:31:26;0.00;;;0.00;;
10839;SDS011;5473;42.706;23.328;2022-08-19T09:33:55;0.00;;;0.00;;
10839;SDS011;5473;42.706;23.328;2022-08-19T09:36:23;0.00;;;0.00;;
10839;SDS011;5473;42.706;23.328;2022-08-19T09:38:54;0.00;;;0.00;;
10839;SDS011;5473;42.706;23.328;2022-08-19T09:41:22;0.00;;;0.00;;
10839;SDS011;5473;42.706;23.328;2022-08-19T09:43:53;0.00;;;0.00;;
10839;SDS011;5473;42.706;23.328;2022-08-19T09:46:22;0.00;;;0.00;;
10839;SDS011;5473;42.706;23.328;2022-08-19T09:48:50;0.00;;;0.00;;
10839;SDS011;5473;42.706;23.328;2022-08-19T09:51:19;0.00;;;0.00;;
10839;SDS011;5473;42.706;23.328;2022-08-19T09:53:48;0.00;;;0.00;;
10839;SDS011;5473;42.706;23.328;2022-08-19T09:56:16;0.00;;;0.00;;
10839;SDS011;5473;42.706;23.328;2022-08-19T09:58:44;0.00;;;0.00;;
10839;SDS011;5473;42.706;23.328;2022-08-19T10:01:16;0.00;;;0.00;;
10839;SDS011;5473;42.706;23.328;2022-08-19T10:03:47;0.00;;;0.00;;
10839;SDS011;5473;42.706;23.328;2022-08-19T10:06:16;0.00;;;0.00;;
10839;SDS011;5473;42.706;23.328;2022-08-19T10:08:45;0.00;;;0.00;;
10839;SDS011;5473;42.706;23.328;2022-08-19T10:11:12;0.00;;;0.00;;
10839;SDS011;5473;42.706;23.328;2022-08-19T10:13:42;0.00;;;0.00;;
10839;SDS011;5473;42.706;23.328;2022-08-19T10:16:10;0.00;;;0.00;;
10839;SDS011;5473;42.706;23.328;2022-08-19T10:18:39;0.00;;;0.00;;
10839;SDS011;5473;42.706;23.328;2022-08-19T10:21:10;0.00;;;0.00;;
10839;SDS011;5473;42.706;23.328;2022-08-19T10:23:39;0.00;;;0.00;;
10839;SDS011;5473;42.706;23.328;2022-08-19T10:26:12;0.00;;;0.00;;
10839;SDS011;5473;42.706;23.328;2022-08-19T10:28:40;0.10;;;0.10;;
10839;SDS011;5473;42.706;23.328;2022-08-19T10:31:07;0.00;;;0.00;;
10839;SDS011;5473;42.706;23.328;2022-08-19T10:33:36;0.00;;;0.00;;
10839;SDS011;5473;42.706;23.328;2022-08-19T10:36:06;0.00;;;0.00;;
10839;SDS011;5473;42.706;23.328;2022-08-19T10:38:35;0.00;;;0.00;;
10839;SDS011;5473;42.706;23.328;2022-08-19T10:41:09;0.00;;;0.00;;
10839;SDS011;5473;42.706;23.328;2022-08-19T10:43:39;0.00;;;0.00;;
10839;SDS011;5473;42.706;23.328;2022-08-19T10:46:06;0.00;;;0.00;;
10839;SDS011;5473;42.706;23.328;2022-08-19T10:48:33;0.00;;;0.00;;
10839;SDS011;5473;42.706;23.328;2022-08-19T10:51:00;0.00;;;0.00;;
10839;SDS011;5473;42.706;23.328;2022-08-19T10:53:45;0.00;;;0.00;;
10839;SDS011;5473;42.706;23.328;2022-08-19T10:56:12;0.00;;;0.00;;
10839;SDS011;5473;42.706;23.328;2022-08-19T10:58:57;0.05;;;0.05;;
10839;SDS011;5473;42.706;23.328;2022-08-19T11:01:24;0.00;;;0.00;;
10839;SDS011;5473;42.706;23.328;2022-08-19T11:03:51;0.00;;;0.00;;
10839;SDS011;5473;42.706;23.328;2022-08-19T11:06:18;0.00;;;0.00;;
10839;SDS011;5473;42.706;23.328;2022-08-19T11:08:47;0.00;;;0.00;;
10839;SDS011;5473;42.706;23.328;2022-08-19T11:11:13;0.00;;;0.00;;
10839;SDS011;5473;42.706;23.328;2022-08-19T11:13:40;0.00;;;0.00;;
10839;SDS011;5473;42.706;23.328;2022-08-19T11:16:10;0.00;;;0.00;;
10839;SDS011;5473;42.706;23.328;2022-08-19T11:18:41;0.00;;;0.00;;
10839;SDS011;5473;42.706;23.328;2022-08-19T11:21:10;0.00;;;0.00;;
10839;SDS011;5473;42.706;23.328;2022-08-19T11:23:39;0.00;;;0.00;;
10839;SDS011;5473;42.706;23.328;2022-08-19T11:26:08;0.00;;;0.00;;
10839;SDS011;5473;42.706;23.328;2022-08-19T11:28:34;0.00;;;0.00;;
10839;SDS011;5473;42.706;23.328;2022-08-19T11:31:01;0.00;;;0.00;;
10839;SDS011;5473;42.706;23.328;2022-08-19T11:33:29;0.00;;;0.00;;
10839;SDS011;5473;42.706;23.328;2022-08-19T11:35:57;0.00;;;0.00;;
10839;SDS011;5473;42.706;23.328;2022-08-19T11:38:25;0.00;;;0.00;;
10839;SDS011;5473;42.706;23.328;2022-08-19T11:40:56;0.00;;;0.00;;
10839;SDS011;5473;42.706;23.328;2022-08-19T11:43:25;0.00;;;0.00;;
10839;SDS011;5473;42.706;23.328;2022-08-19T11:45:53;0.00;;;0.00;;
10839;SDS011;5473;42.706;23.328;2022-08-19T11:48:20;0.00;;;0.00;;
10839;SDS011;5473;42.706;23.328;2022-08-19T11:50:48;0.00;;;0.00;;
10839;SDS011;5473;42.706;23.328;2022-08-19T11:53:15;0.00;;;0.00;;
10839;SDS011;5473;42.706;23.328;2022-08-19T11:55:43;0.00;;;0.00;;
10839;SDS011;5473;42.706;23.328;2022-08-19T11:58:10;0.00;;;0.00;;
10839;SDS011;5473;42.706;23.328;2022-08-19T12:00:39;0.00;;;0.00;;
10839;SDS011;5473;42.706;23.328;2022-08-19T12:03:06;0.00;;;0.00;;
10839;SDS011;5473;42.706;23.328;2022-08-19T12:05:36;0.00;;;0.00;;
10839;SDS011;5473;42.706;23.328;2022-08-19T12:08:03;0.00;;;0.00;;
10839;SDS011;5473;42.706;23.328;2022-08-19T12:10:30;0.00;;;0.00;;
10839;SDS011;5473;42.706;23.328;2022-08-19T12:12:57;0.00;;;0.00;;
10839;SDS011;5473;42.706;23.328;2022-08-19T12:15:24;0.00;;;0.00;;
10839;SDS011;5473;42.706;23.328;2022-08-19T12:17:54;0.00;;;0.00;;
10839;SDS011;5473;42.706;23.328;2022-08-19T12:20:21;0.00;;;0.00;;
10839;SDS011;5473;42.706;23.328;2022-08-19T12:22:49;0.00;;;0.00;;
10839;SDS011;5473;42.706;23.328;2022-08-19T12:25:17;0.00;;;0.00;;
10839;SDS011;5473;42.706;23.328;2022-08-19T12:27:44;0.00;;;0.00;;
10839;SDS011;5473;42.706;23.328;2022-08-19T12:30:12;0.00;;;0.00;;
10839;SDS011;5473;42.706;23.328;2022-08-19T12:32:39;0.00;;;0.00;;
10839;SDS011;5473;42.706;23.328;2022-08-19T12:35:08;0.00;;;0.00;;
10839;SDS011;5473;42.706;23.328;2022-08-19T12:37:35;0.00;;;0.00;;
10839;SDS011;5473;42.706;23.328;2022-08-19T12:40:03;0.00;;;0.00;;
10839;SDS011;5473;42.706;23.328;2022-08-19T12:42:30;0.00;;;0.00;;
10839;SDS011;5473;42.706;23.328;2022-08-19T12:44:57;0.00;;;0.00;;
10839;SDS011;5473;42.706;23.328;2022-08-19T12:47:24;0.00;;;0.00;;
10839;SDS011;5473;42.706;23.328;2022-08-19T12:49:51;0.00;;;0.00;;
10839;SDS011;5473;42.706;23.328;2022-08-19T12:52:19;0.00;;;0.00;;
10839;SDS011;5473;42.706;23.328;2022-08-19T12:54:46;0.00;;;0.00;;
10839;SDS011;5473;42.706;23.328;2022-08-19T12:57:13;0.00;;;0.00;;
10839;SDS011;5473;42.706;23.328;2022-08-19T12:59:40;0.00;;;0.00;;
10839;SDS011;5473;42.706;23.328;2022-08-19T13:02:07;0.00;;;0.00;;
10839;SDS011;5473;42.706;23.328;2022-08-19T13:04:35;0.00;;;0.00;;
10839;SDS011;5473;42.706;23.328;2022-08-19T13:07:05;0.00;;;0.00;;
10839;SDS011;5473;42.706;23.328;2022-08-19T13:09:34;0.00;;;0.00;;
10839;SDS011;5473;42.706;23.328;2022-08-19T13:12:01;0.00;;;0.00;;
10839;SDS011;5473;42.706;23.328;2022-08-19T13:14:28;0.00;;;0.00;;
10839;SDS011;5473;42.706;23.328;2022-08-19T13:16:57;0.00;;;0.00;;
10839;SDS011;5473;42.706;23.328;2022-08-19T13:19:23;0.00;;;0.00;;
10839;SDS011;5473;42.706;23.328;2022-08-19T13:21:51;0.00;;;0.00;;
10839;SDS011;5473;42.706;23.328;2022-08-19T13:24:20;0.00;;;0.00;;
10839;SDS011;5473;42.706;23.328;2022-08-19T13:26:48;0.00;;;0.00;;
10839;SDS011;5473;42.706;23.328;2022-08-19T13:29:15;0.00;;;0.00;;
10839;SDS011;5473;42.706;23.328;2022-08-19T13:31:59;0.00;;;0.00;;
10839;SDS011;5473;42.706;23.328;2022-08-19T13:34:52;0.00;;;0.00;;
10839;SDS011;5473;42.706;23.328;2022-08-19T13:37:19;0.00;;;0.00;;
10839;SDS011;5473;42.706;23.328;2022-08-19T13:40:06;0.00;;;0.00;;
10839;SDS011;5473;42.706;23.328;2022-08-19T13:42:39;0.00;;;0.00;;
10839;SDS011;5473;42.706;23.328;2022-08-19T13:45:06;0.00;;;0.00;;
10839;SDS011;5473;42.706;23.328;2022-08-19T13:47:34;0.00;;;0.00;;
10839;SDS011;5473;42.706;23.328;2022-08-19T13:50:08;0.00;;;0.00;;
10839;SDS011;5473;42.706;23.328;2022-08-19T13:52:35;0.00;;;0.00;;
10839;SDS011;5473;42.706;23.328;2022-08-19T13:55:02;0.00;;;0.00;;
10839;SDS011;5473;42.706;23.328;2022-08-19T13:57:30;0.00;;;0.00;;
10839;SDS011;5473;42.706;23.328;2022-08-19T13:59:58;0.00;;;0.00;;
10839;SDS011;5473;42.706;23.328;2022-08-19T14:02:25;0.00;;;0.00;;
10839;SDS011;5473;42.706;23.328;2022-08-19T14:04:53;0.00;;;0.00;;
10839;SDS011;5473;42.706;23.328;2022-08-19T14:07:20;0.00;;;0.00;;
10839;SDS011;5473;42.706;23.328;2022-08-19T14:09:48;0.00;;;0.00;;
10839;SDS011;5473;42.706;23.328;2022-08-19T14:12:18;0.00;;;0.00;;
10839;SDS011;5473;42.706;23.328;2022-08-19T14:14:45;0.00;;;0.00;;
10839;SDS011;5473;42.706;23.328;2022-08-19T14:17:13;0.00;;;0.00;;
10839;SDS011;5473;42.706;23.328;2022-08-19T14:19:40;0.00;;;0.00;;
10839;SDS011;5473;42.706;23.328;2022-08-19T14:22:07;0.00;;;0.00;;
10839;SDS011;5473;42.706;23.328;2022-08-19T14:24:36;0.00;;;0.00;;
10839;SDS011;5473;42.706;23.328;2022-08-19T14:27:04;0.00;;;0.00;;
10839;SDS011;5473;42.706;23.328;2022-08-19T14:29:31;0.00;;;0.00;;
10839;SDS011;5473;42.706;23.328;2022-08-19T14:31:59;0.00;;;0.00;;
10839;SDS011;5473;42.706;23.328;2022-08-19T14:34:27;0.00;;;0.00;;
10839;SDS011;5473;42.706;23.328;2022-08-19T14:36:56;0.00;;;0.00;;
10839;SDS011;5473;42.706;23.328;2022-08-19T14:39:23;0.00;;;0.00;;
10839;SDS011;5473;42.706;23.328;2022-08-19T14:41:51;0.00;;;0.00;;
10839;SDS011;5473;42.706;23.328;2022-08-19T14:44:18;0.00;;;0.00;;
10839;SDS011;5473;42.706;23.328;2022-08-19T14:46:45;0.00;;;0.00;;
10839;SDS011;5473;42.706;23.328;2022-08-19T14:49:12;0.00;;;0.00;;
10839;SDS011;5473;42.706;23.328;2022-08-19T14:51:40;0.00;;;0.00;;
10839;SDS011;5473;42.706;23.328;2022-08-19T14:54:07;0.00;;;0.00;;
10839;SDS011;5473;42.706;23.328;2022-08-19T14:56:34;0.00;;;0.00;;